Time;durP1;ratioP1;P1;durP2;ratioP2;P2;SDS_P1;SDS_P2;PMS_P1;PMS_P2;Temp;Humidity;BMP_temperature;BMP_pressure;BME280_temperature;BME280_humidity;BME280_pressure;Samples;Min_cycle;Max_cycle;Signal;HPM_P1;HPM_P2
2021/07/10 00:02:00;;;;;;;27.65;17.92;;;15.20;99.90;;;;;;4973181;28;20043;-90
2021/07/10 00:04:29;;;;;;;25.70;16.92;;;15.20;99.90;;;;;;4978758;28;20138;-88
2021/07/10 00:06:58;;;;;;;22.13;16.13;;;15.10;99.90;;;;;;4977541;28;20178;-88
2021/07/10 00:09:24;;;;;;;33.35;18.77;;;15.10;99.90;;;;;;4962030;28;20057;-88
2021/07/10 00:11:50;;;;;;;26.23;17.70;;;15.10;99.90;;;;;;4973909;28;20042;-89
2021/07/10 00:14:16;;;;;;;30.65;19.27;;;15.00;99.90;;;;;;4995488;28;20096;-88
2021/07/10 00:16:42;;;;;;;28.08;18.60;;;14.90;99.90;;;;;;4977289;28;20078;-92
2021/07/10 00:19:09;;;;;;;33.97;19.92;;;14.80;99.90;;;;;;4994431;28;20121;-91
2021/07/10 00:21:34;;;;;;;22.90;16.88;;;14.80;99.90;;;;;;4959163;28;20057;-92
2021/07/10 00:24:00;;;;;;;28.52;18.90;;;14.70;99.90;;;;;;4978774;28;20034;-91
2021/07/10 00:26:26;;;;;;;28.13;18.33;;;14.60;99.90;;;;;;4960224;28;20070;-91
2021/07/10 00:28:52;;;;;;;31.15;19.40;;;14.50;99.90;;;;;;4989562;28;20121;-91
2021/07/10 00:31:18;;;;;;;28.60;17.73;;;14.50;99.90;;;;;;4993600;28;20078;-88
2021/07/10 00:33:45;;;;;;;34.33;18.15;;;14.40;99.90;;;;;;4968388;28;20042;-87
2021/07/10 00:36:11;;;;;;;37.92;20.20;;;14.40;99.90;;;;;;4987850;28;20054;-88
2021/07/10 00:38:37;;;;;;;28.08;18.00;;;14.30;99.90;;;;;;4993364;28;20030;-90
2021/07/10 00:41:03;;;;;;;30.63;18.73;;;14.30;99.90;;;;;;4976064;28;20105;-90
2021/07/10 00:43:29;;;;;;;28.58;18.27;;;14.20;99.90;;;;;;4994721;28;20100;-89
2021/07/10 00:45:55;;;;;;;31.85;18.35;;;14.20;99.90;;;;;;4956713;28;20462;-92
2021/07/10 00:48:21;;;;;;;28.73;15.68;;;14.10;99.90;;;;;;4976069;28;20053;-91
2021/07/10 00:50:48;;;;;;;31.52;19.13;;;14.00;99.90;;;;;;5000152;28;20046;-90
2021/07/10 00:53:14;;;;;;;25.20;17.27;;;14.00;99.90;;;;;;4999556;28;20093;-93
2021/07/10 00:55:41;;;;;;;35.80;21.15;;;13.90;99.90;;;;;;4990928;28;20038;-93
2021/07/10 00:58:08;;;;;;;31.23;18.13;;;13.80;99.90;;;;;;4977678;28;20105;-92
2021/07/10 01:00:35;;;;;;;26.05;18.95;;;13.80;99.90;;;;;;4977672;28;20878;-94
2021/07/10 01:03:01;;;;;;;35.70;22.05;;;13.90;99.90;;;;;;4977014;28;20062;-91
2021/07/10 01:05:30;;;;;;;39.30;22.77;;;13.80;99.90;;;;;;4993080;28;20082;-90
2021/07/10 01:07:57;;;;;;;;;;;13.80;99.90;;;;;;4981323;28;20105;-90
2021/07/10 01:10:24;;;;;;;32.50;18.23;;;13.80;99.90;;;;;;4972894;28;19977;-91
2021/07/10 01:12:53;;;;;;;31.13;19.95;;;13.90;99.90;;;;;;4973857;28;20058;-90
2021/07/10 01:15:25;;;;;;;34.28;20.42;;;13.90;99.90;;;;;;4973239;28;20105;-89
2021/07/10 01:17:53;;;;;;;31.08;19.58;;;14.00;99.90;;;;;;4973609;28;20038;-88
2021/07/10 01:20:21;;;;;;;27.70;16.60;;;14.00;99.90;;;;;;4953771;28;20075;-90
2021/07/10 01:22:48;;;;;;;26.73;16.20;;;14.00;99.90;;;;;;4969598;28;20169;-90
2021/07/10 01:25:17;;;;;;;21.95;16.13;;;14.10;99.90;;;;;;4953981;29;20403;-89
2021/07/10 01:27:43;;;;;;;25.35;17.73;;;14.10;99.90;;;;;;4952908;28;20058;-93
2021/07/10 01:30:15;;;;;;;30.17;19.88;;;14.30;99.90;;;;;;4974459;28;20054;-92
2021/07/10 01:32:42;;;;;;;28.90;20.25;;;14.40;99.90;;;;;;4974102;28;20037;-93
2021/07/10 01:35:09;;;;;;;30.00;19.70;;;14.40;99.90;;;;;;4974258;28;20046;-90
2021/07/10 01:37:36;;;;;;;31.30;20.40;;;14.40;99.90;;;;;;4973939;28;20039;-89
2021/07/10 01:40:05;;;;;;;33.63;20.35;;;14.40;99.90;;;;;;4939552;28;20059;-90
2021/07/10 01:42:32;;;;;;;31.20;19.02;;;14.40;99.90;;;;;;4966076;28;20047;-91
2021/07/10 01:44:59;;;;;;;30.60;19.60;;;14.30;99.90;;;;;;4955943;28;20047;-89
2021/07/10 01:47:24;;;;;;;30.40;18.75;;;14.30;99.90;;;;;;4973795;28;20070;-90
2021/07/10 01:49:50;;;;;;;31.85;19.83;;;14.30;99.90;;;;;;4955973;28;20770;-89
2021/07/10 01:52:17;;;;;;;26.63;16.52;;;14.30;99.90;;;;;;4973663;28;20035;-90
2021/07/10 01:54:43;;;;;;;31.23;16.88;;;14.30;99.90;;;;;;4956469;28;20057;-91
2021/07/10 01:57:09;;;;;;;23.52;14.82;;;14.40;99.90;;;;;;4940084;28;20120;-90
2021/07/10 01:59:36;;;;;;;29.58;18.45;;;14.40;99.90;;;;;;4973264;28;20050;-90
2021/07/10 02:02:03;;;;;;;24.42;17.50;;;14.40;99.90;;;;;;4968285;28;20071;-89
2021/07/10 02:04:30;;;;;;;33.38;20.42;;;14.40;99.90;;;;;;4932065;28;20058;-90
2021/07/10 02:06:56;;;;;;;35.03;19.63;;;14.30;99.90;;;;;;4955793;28;20053;-90
2021/07/10 02:09:21;;;;;;;33.00;19.90;;;14.30;99.90;;;;;;4970863;28;20055;-90
2021/07/10 02:11:49;;;;;;;36.92;18.23;;;14.20;99.90;;;;;;4971421;28;20046;-92
2021/07/10 02:14:16;;;;;;;41.92;19.35;;;14.20;99.90;;;;;;4979155;28;20047;-89
2021/07/10 02:16:43;;;;;;;25.23;16.98;;;14.20;99.90;;;;;;4955631;28;20147;-90
2021/07/10 02:19:09;;;;;;;29.20;18.70;;;14.20;99.90;;;;;;4954859;28;20069;-89
2021/07/10 02:21:36;;;;;;;31.33;19.55;;;14.20;99.90;;;;;;4972474;28;20832;-89
2021/07/10 02:24:06;;;;;;;28.63;18.55;;;14.20;99.90;;;;;;4971355;28;20121;-88
2021/07/10 02:26:33;;;;;;;26.40;17.38;;;14.20;99.90;;;;;;4971975;28;20035;-89
2021/07/10 02:29:00;;;;;;;32.17;18.35;;;14.10;99.90;;;;;;4987489;28;20051;-89
2021/07/10 02:31:25;;;;;;;27.98;19.40;;;14.10;99.90;;;;;;4977089;28;20116;-89
2021/07/10 02:33:53;;;;;;;32.50;19.20;;;14.00;99.90;;;;;;4977801;28;20047;-89
2021/07/10 02:36:19;;;;;;;29.02;19.00;;;14.00;99.90;;;;;;4955563;28;20125;-88
2021/07/10 02:38:45;;;;;;;28.38;19.23;;;13.90;99.90;;;;;;4971368;28;20050;-89
2021/07/10 02:41:11;;;;;;;39.15;21.67;;;13.90;99.90;;;;;;4972048;28;20050;-90
2021/07/10 02:43:37;;;;;;;29.60;16.95;;;13.80;99.90;;;;;;4971529;28;20376;-90
2021/07/10 02:46:04;;;;;;;36.97;19.95;;;13.70;99.90;;;;;;4971533;28;20051;-90
2021/07/10 02:48:30;;;;;;;25.85;17.15;;;13.70;99.90;;;;;;4955380;28;20038;-90
2021/07/10 02:50:56;;;;;;;31.83;17.45;;;13.70;99.90;;;;;;4971098;28;20104;-89
2021/07/10 02:53:22;;;;;;;34.88;19.10;;;13.70;99.90;;;;;;4955779;28;20045;-91
2021/07/10 02:55:48;;;;;;;38.55;19.80;;;13.70;99.90;;;;;;4971472;28;20051;-92
2021/07/10 02:58:14;;;;;;;23.80;17.45;;;13.60;99.90;;;;;;4975033;28;20066;-88
2021/07/10 03:00:41;;;;;;;31.15;19.80;;;13.60;99.90;;;;;;4971484;28;20066;-89
2021/07/10 03:03:07;;;;;;;35.38;21.60;;;13.50;99.90;;;;;;4970880;28;20483;-91
2021/07/10 03:05:37;;;;;;;37.40;21.15;;;13.50;99.90;;;;;;4971063;28;20074;-89
2021/07/10 03:08:05;;;;;;;35.72;20.58;;;13.40;99.90;;;;;;4971989;28;20475;-89
2021/07/10 03:10:32;;;;;;;35.80;20.63;;;13.40;99.90;;;;;;4955334;28;20053;-90
2021/07/10 03:12:59;;;;;;;32.03;19.20;;;13.40;99.90;;;;;;4945344;28;20118;-89
2021/07/10 03:15:27;;;;;;;33.20;20.52;;;13.40;99.90;;;;;;4972150;28;20435;-89
2021/07/10 03:17:53;;;;;;;35.42;20.83;;;13.40;99.90;;;;;;4971536;28;20046;-90
2021/07/10 03:20:21;;;;;;;34.17;21.33;;;13.40;99.90;;;;;;4966069;28;20051;-89
2021/07/10 03:22:48;;;;;;;40.28;22.80;;;13.40;99.90;;;;;;4962168;28;20047;-90
2021/07/10 03:25:15;;;;;;;44.00;23.33;;;13.40;99.90;;;;;;4984814;28;20150;-90
2021/07/10 03:27:42;;;;;;;43.65;23.17;;;13.50;99.90;;;;;;4974570;28;20493;-89
2021/07/10 03:30:10;;;;;;;37.13;20.42;;;13.50;99.90;;;;;;4974111;28;20049;-90
2021/07/10 03:32:38;;;;;;;24.60;18.05;;;13.60;99.90;;;;;;4957338;28;20117;-90
2021/07/10 03:35:06;;;;;;;27.02;16.63;;;13.60;99.90;;;;;;4971207;28;20514;-90
2021/07/10 03:37:32;;;;;;;29.33;13.77;;;13.70;99.90;;;;;;4940016;29;20488;-90
2021/07/10 03:39:58;;;;;;;23.98;15.35;;;13.70;99.90;;;;;;4956827;28;20054;-90
2021/07/10 03:42:24;;;;;;;31.90;18.98;;;13.90;99.90;;;;;;4962864;28;20051;-89
2021/07/10 03:44:50;;;;;;;34.63;20.08;;;14.00;99.90;;;;;;4957798;28;20422;-90
2021/07/10 03:47:16;;;;;;;25.13;16.02;;;14.00;99.90;;;;;;4974448;28;20515;-90
2021/07/10 03:49:43;;;;;;;27.38;18.08;;;14.00;99.90;;;;;;4979961;28;20050;-90
2021/07/10 03:52:09;;;;;;;26.98;17.90;;;14.10;99.90;;;;;;4966334;28;20509;-90
2021/07/10 03:54:35;;;;;;;30.58;18.55;;;14.10;99.90;;;;;;4958202;28;20046;-89
2021/07/10 03:57:01;;;;;;;32.28;20.58;;;14.10;99.90;;;;;;4957887;28;20047;-89
2021/07/10 03:59:27;;;;;;;29.77;20.00;;;14.20;99.90;;;;;;4958175;28;20113;-91
2021/07/10 04:01:52;;;;;;;37.10;20.10;;;14.20;99.90;;;;;;4968547;28;20093;-90
2021/07/10 04:04:18;;;;;;;31.25;20.02;;;14.20;99.90;;;;;;4975893;28;20050;-89
2021/07/10 04:06:44;;;;;;;42.33;22.60;;;14.20;99.90;;;;;;4961444;28;20440;-90
2021/07/10 04:09:10;;;;;;;42.75;23.92;;;14.20;99.90;;;;;;4993756;28;20042;-89
2021/07/10 04:11:36;;;;;;;45.67;24.17;;;14.10;99.90;;;;;;4976887;28;20077;-89
2021/07/10 04:14:02;;;;;;;46.30;23.20;;;14.10;99.90;;;;;;4974380;28;20050;-88
2021/07/10 04:16:28;;;;;;;37.33;21.90;;;14.10;99.90;;;;;;4977491;28;20077;-89
2021/07/10 04:18:54;;;;;;;29.48;19.27;;;14.10;99.90;;;;;;4994227;28;20494;-89
2021/07/10 04:21:19;;;;;;;35.97;21.05;;;14.10;99.90;;;;;;4976383;28;20129;-88
2021/07/10 04:23:46;;;;;;;35.97;21.48;;;14.10;99.90;;;;;;4994272;28;20462;-88
2021/07/10 04:26:12;;;;;;;33.20;20.30;;;14.10;99.90;;;;;;4959836;28;20074;-90
2021/07/10 04:28:42;;;;;;;;;;;14.10;99.90;;;;;;4994520;28;20070;-88
2021/07/10 04:31:08;;;;;;;38.75;23.00;;;14.10;99.90;;;;;;4976149;28;19961;-89
2021/07/10 04:33:33;;;;;;;45.20;23.15;;;14.10;99.90;;;;;;4973463;28;20491;-88
2021/07/10 04:35:59;;;;;;;68.13;29.63;;;14.10;99.90;;;;;;4959929;28;20550;-90
2021/07/10 04:38:25;;;;;;;69.40;30.73;;;14.10;99.90;;;;;;4947216;28;20486;-89
2021/07/10 04:40:51;;;;;;;63.40;30.00;;;14.10;99.90;;;;;;4944827;28;20065;-90
2021/07/10 04:43:17;;;;;;;79.20;32.33;;;14.10;99.90;;;;;;4993350;28;20046;-88
2021/07/10 04:45:42;;;;;;;51.88;25.77;;;14.10;99.90;;;;;;4960480;28;20100;-88
2021/07/10 04:48:08;;;;;;;55.40;26.27;;;14.10;99.90;;;;;;4960260;28;20467;-88
2021/07/10 04:50:34;;;;;;;56.67;27.85;;;14.10;99.90;;;;;;4976522;28;20126;-88
2021/07/10 04:53:00;;;;;;;42.08;23.23;;;14.10;99.90;;;;;;4982112;28;20100;-92
2021/07/10 04:55:27;;;;;;;43.90;24.58;;;14.20;99.90;;;;;;4976624;28;20087;-89
2021/07/10 04:57:54;;;;;;;37.53;22.42;;;14.20;99.90;;;;;;4977376;28;20038;-89
2021/07/10 05:00:20;;;;;;;41.65;23.75;;;14.30;99.90;;;;;;4960082;28;20414;-90
2021/07/10 05:02:46;;;;;;;48.83;26.08;;;14.40;99.90;;;;;;4994040;28;20121;-89
2021/07/10 05:05:12;;;;;;;46.85;26.02;;;14.40;99.90;;;;;;4993056;28;20161;-89
2021/07/10 05:07:44;;;;;;;45.17;25.40;;;14.50;99.90;;;;;;4962272;28;20053;-90
2021/07/10 05:10:11;;;;;;;51.20;26.63;;;14.50;99.90;;;;;;4968960;28;20105;-90
2021/07/10 05:12:37;;;;;;;47.15;25.33;;;14.60;99.90;;;;;;4974633;28;20034;-89
2021/07/10 05:15:04;;;;;;;49.28;25.67;;;14.60;99.90;;;;;;4993499;28;20548;-93
2021/07/10 05:17:29;;;;;;;40.13;23.83;;;14.70;99.90;;;;;;4976378;28;20049;-89
2021/07/10 05:19:55;;;;;;;45.72;23.92;;;14.80;99.90;;;;;;4984285;28;20042;-89
2021/07/10 05:22:21;;;;;;;53.25;27.02;;;14.80;99.90;;;;;;4981593;28;20042;-90
2021/07/10 05:24:47;;;;;;;39.75;24.25;;;14.90;99.90;;;;;;4960030;28;20053;-90
2021/07/10 05:27:13;;;;;;;43.78;23.42;;;15.00;99.90;;;;;;4975826;28;20041;-90
2021/07/10 05:29:38;;;;;;;40.47;23.73;;;15.10;99.90;;;;;;4960266;28;20066;-91
2021/07/10 05:32:04;;;;;;;39.50;22.17;;;15.20;99.90;;;;;;4960232;28;20038;-92
2021/07/10 05:34:30;;;;;;;46.58;24.92;;;15.30;99.90;;;;;;4975963;28;20046;-89
2021/07/10 05:36:56;;;;;;;46.30;24.65;;;15.30;99.90;;;;;;4959912;28;20383;-90
2021/07/10 05:39:22;;;;;;;48.45;25.42;;;15.40;99.90;;;;;;4970484;28;20042;-90
2021/07/10 05:41:48;;;;;;;42.90;24.65;;;15.50;99.90;;;;;;4992979;28;20049;-90
2021/07/10 05:44:14;;;;;;;37.75;22.23;;;15.50;99.90;;;;;;4959266;28;20401;-91
2021/07/10 05:46:40;;;;;;;43.47;23.80;;;15.60;99.90;;;;;;4925099;28;20141;-90
2021/07/10 05:49:06;;;;;;;36.35;19.67;;;15.60;99.90;;;;;;4959729;28;20053;-91
2021/07/10 05:51:31;;;;;;;39.47;21.70;;;15.70;99.90;;;;;;4975261;28;20446;-89
2021/07/10 05:53:57;;;;;;;41.95;23.10;;;15.70;99.90;;;;;;4976169;28;20406;-90
2021/07/10 05:56:24;;;;;;;38.78;20.45;;;15.70;99.90;;;;;;4975265;28;20038;-91
2021/07/10 05:58:49;;;;;;;37.83;20.92;;;15.70;99.90;;;;;;4973378;28;20398;-90
2021/07/10 06:01:15;;;;;;;29.13;17.75;;;15.70;99.90;;;;;;4982834;28;20050;-90
2021/07/10 06:03:41;;;;;;;28.45;18.23;;;15.70;99.90;;;;;;5006296;28;20097;-91
2021/07/10 06:06:07;;;;;;;24.13;15.30;;;15.80;99.90;;;;;;4955501;28;20087;-93
2021/07/10 06:08:33;;;;;;;25.67;14.70;;;15.90;99.90;;;;;;4957848;28;20046;-91
2021/07/10 06:10:59;;;;;;;22.83;14.45;;;15.90;99.90;;;;;;4975309;28;20053;-91
2021/07/10 06:13:25;;;;;;;20.48;14.07;;;16.00;99.90;;;;;;4956043;28;20050;-93
2021/07/10 06:15:51;;;;;;;19.52;13.32;;;16.00;99.90;;;;;;4956686;28;20131;-91
2021/07/10 06:18:16;;;;;;;19.77;12.10;;;16.10;99.90;;;;;;4971936;28;20039;-92
2021/07/10 06:20:42;;;;;;;21.02;12.57;;;16.20;99.90;;;;;;4971817;28;20053;-92
2021/07/10 06:23:08;;;;;;;18.83;13.75;;;16.30;99.90;;;;;;4954553;28;20050;-93
2021/07/10 06:25:37;;;;;;;19.90;12.90;;;16.40;99.90;;;;;;4954069;28;20047;-90
2021/07/10 06:28:07;;;;;;;18.55;12.20;;;16.50;99.90;;;;;;4981589;28;20126;-89
2021/07/10 06:30:33;;;;;;;;;;;16.60;99.90;;;;;;4955202;28;20121;-91
2021/07/10 06:32:59;;;;;;;12.15;4.22;;;16.60;99.90;;;;;;4969657;28;20025;-90
2021/07/10 06:35:25;;;;;;;6.38;3.40;;;16.70;99.90;;;;;;4948452;28;20049;-89
2021/07/10 06:37:51;;;;;;;3.92;3.20;;;16.80;99.90;;;;;;4976266;28;20395;-89
2021/07/10 06:40:18;;;;;;;6.07;3.20;;;16.90;99.90;;;;;;4955451;28;20510;-89
2021/07/10 06:42:45;;;;;;;5.50;3.70;;;17.00;99.90;;;;;;4981224;28;20101;-89
2021/07/10 06:45:13;;;;;;;4.15;3.85;;;17.10;99.90;;;;;;4972305;28;20066;-91
2021/07/10 06:47:39;;;;;;;4.05;3.40;;;17.20;99.90;;;;;;4972849;28;20042;-89
2021/07/10 06:50:08;;;;;;;4.32;2.88;;;17.30;99.90;;;;;;4972251;28;20062;-89
2021/07/10 06:52:35;;;;;;;2.90;2.60;;;17.20;99.90;;;;;;4972572;28;20042;-88
2021/07/10 06:55:01;;;;;;;7.25;3.13;;;17.40;99.90;;;;;;4971303;28;20129;-88
2021/07/10 06:57:27;;;;;;;2.70;2.50;;;17.40;99.90;;;;;;4960207;28;20054;-92
2021/07/10 06:59:53;;;;;;;4.05;2.80;;;17.50;99.90;;;;;;4972364;28;20046;-90
2021/07/10 07:02:19;;;;;;;3.00;2.80;;;17.50;99.90;;;;;;4974123;28;20039;-89
2021/07/10 07:04:45;;;;;;;2.88;2.67;;;17.50;99.90;;;;;;4970780;28;20055;-90
2021/07/10 07:07:10;;;;;;;5.43;2.70;;;17.60;99.90;;;;;;4940243;28;20069;-93
2021/07/10 07:09:36;;;;;;;5.25;2.97;;;17.60;99.90;;;;;;4972137;28;20047;-90
2021/07/10 07:12:03;;;;;;;3.33;2.97;;;17.60;99.90;;;;;;4977971;28;20380;-90
2021/07/10 07:14:29;;;;;;;4.22;3.20;;;17.60;99.90;;;;;;4970753;28;20039;-90
2021/07/10 07:17:02;;;;;;;5.93;3.60;;;17.60;99.90;;;;;;4954541;28;20050;-89
2021/07/10 07:19:32;;;;;;;4.82;3.70;;;17.70;99.90;;;;;;4981130;28;20055;-90
2021/07/10 07:21:58;;;;;;;3.00;2.80;;;17.70;99.90;;;;;;4974757;28;20043;-88
2021/07/10 07:24:25;;;;;;;3.55;3.30;;;17.70;99.90;;;;;;4972738;28;20392;-90
2021/07/10 07:26:51;;;;;;;3.33;3.03;;;17.80;99.90;;;;;;4971840;28;20109;-91
2021/07/10 07:29:17;;;;;;;4.13;3.75;;;17.80;99.90;;;;;;4977764;28;20040;-90
2021/07/10 07:31:45;;;;;;;3.30;3.10;;;17.90;99.90;;;;;;4931409;28;20498;-89
2021/07/10 07:34:11;;;;;;;3.47;3.00;;;18.00;99.90;;;;;;4970335;28;20375;-93
2021/07/10 07:36:37;;;;;;;3.40;2.72;;;18.00;99.90;;;;;;4963918;28;20043;-90
2021/07/10 07:39:06;;;;;;;3.80;2.80;;;18.20;99.90;;;;;;4971079;28;20049;-88
2021/07/10 07:41:39;;;;;;;4.00;2.97;;;18.30;99.90;;;;;;4970625;28;20051;-90
2021/07/10 07:44:05;;;;;;;4.95;2.90;;;18.30;99.90;;;;;;4957353;28;20050;-91
2021/07/10 07:46:34;;;;;;;;;;;18.30;99.90;;;;;;4956542;28;20097;-88
2021/07/10 07:49:04;;;;;;;4.22;3.00;;;18.30;99.90;;;;;;4971148;28;19922;-88
2021/07/10 07:51:30;;;;;;;3.95;2.88;;;18.40;99.90;;;;;;4971030;28;20093;-88
2021/07/10 07:53:56;;;;;;;2.90;2.70;;;18.40;99.90;;;;;;4970876;28;20058;-88
2021/07/10 07:56:24;;;;;;;6.43;2.88;;;18.50;99.90;;;;;;4972229;28;20414;-89
2021/07/10 07:58:50;;;;;;;2.78;2.58;;;18.50;99.90;;;;;;4970000;28;20046;-89
2021/07/10 08:01:16;;;;;;;3.55;2.65;;;18.80;99.90;;;;;;4971730;28;20471;-92
2021/07/10 08:03:43;;;;;;;4.60;3.63;;;19.20;99.90;;;;;;4957610;28;20109;-87
2021/07/10 08:06:09;;;;;;;5.57;3.20;;;19.40;99.90;;;;;;4973261;28;20200;-90
2021/07/10 08:08:36;;;;;;;4.00;2.97;;;19.60;99.90;;;;;;4982302;28;20039;-91
2021/07/10 08:11:07;;;;;;;2.67;2.47;;;19.80;99.90;;;;;;4973322;28;20050;-90
2021/07/10 08:13:33;;;;;;;2.38;2.28;;;19.80;99.90;;;;;;4972663;28;20062;-90
2021/07/10 08:16:00;;;;;;;2.92;2.70;;;19.70;99.90;;;;;;4974640;28;20094;-90
2021/07/10 08:18:26;;;;;;;2.70;2.50;;;19.70;99.90;;;;;;4973830;28;20043;-90
2021/07/10 08:20:52;;;;;;;3.33;2.67;;;19.60;99.90;;;;;;4973337;28;20051;-91
2021/07/10 08:23:18;;;;;;;3.45;2.85;;;19.50;99.90;;;;;;4974000;28;20054;-92
2021/07/10 08:25:46;;;;;;;3.38;2.60;;;19.70;99.90;;;;;;4974668;28;20054;-91
2021/07/10 08:28:12;;;;;;;3.30;2.95;;;19.70;99.90;;;;;;4973112;28;20150;-90
2021/07/10 08:30:38;;;;;;;4.45;3.10;;;19.70;99.90;;;;;;4972381;28;20574;-90
2021/07/10 08:33:04;;;;;;;3.50;3.20;;;19.80;99.90;;;;;;4972831;28;20130;-92
2021/07/10 08:35:30;;;;;;;4.47;3.13;;;19.70;99.90;;;;;;4972197;28;20047;-92
2021/07/10 08:37:55;;;;;;;4.85;3.13;;;19.80;99.90;;;;;;4968982;28;20042;-84
2021/07/10 08:40:22;;;;;;;3.38;2.40;;;19.90;99.90;;;;;;4953697;28;20102;-84
2021/07/10 08:42:48;;;;;;;2.67;2.40;;;19.70;99.90;;;;;;4973392;28;20046;-88
2021/07/10 08:45:15;;;;;;;3.58;2.45;;;19.80;99.90;;;;;;4976262;28;20121;-85
2021/07/10 08:47:42;;;;;;;2.90;2.05;;;19.90;99.90;;;;;;4971208;28;20566;-84
2021/07/10 08:50:14;;;;;;;2.30;2.10;;;20.00;99.90;;;;;;4970691;28;20043;-87
2021/07/10 08:52:41;;;;;;;2.20;2.10;;;20.00;99.90;;;;;;4969527;28;20042;-86
2021/07/10 08:55:09;;;;;;;2.30;2.10;;;20.00;99.90;;;;;;4971928;28;20146;-88
2021/07/10 08:57:35;;;;;;;2.65;2.08;;;20.00;99.90;;;;;;4974289;28;20043;-87
2021/07/10 09:00:16;;;;;;;2.67;2.08;;;20.10;99.90;;;;;;4975865;28;20054;-85
2021/07/10 09:02:44;;;;;;;2.38;2.05;;;20.10;99.90;;;;;;4969582;28;20091;-86
2021/07/10 09:05:11;;;;;;;3.35;1.70;;;20.10;99.90;;;;;;4973949;28;20057;-86
2021/07/10 09:08:16;;;;;;;2.53;2.10;;;20.10;99.90;;;;;;4972384;28;20038;-86
2021/07/10 09:10:48;;;;;;;1.90;1.80;;;20.30;99.90;;;;;;4972221;28;20124;-87
2021/07/10 09:13:14;;;;;;;2.20;2.10;;;20.20;99.90;;;;;;4971042;28;20043;-86
2021/07/10 09:15:40;;;;;;;1.92;1.83;;;20.10;99.90;;;;;;4970307;28;20046;-87
2021/07/10 09:18:10;;;;;;;3.00;1.63;;;20.00;99.90;;;;;;4972122;28;20042;-86
2021/07/10 09:20:37;;;;;;;1.88;1.73;;;20.00;99.90;;;;;;4969644;28;20046;-87
2021/07/10 09:23:23;;;;;;;2.15;1.70;;;19.90;99.90;;;;;;4970864;28;20088;-86
2021/07/10 09:25:49;;;;;;;1.98;1.88;;;19.80;99.90;;;;;;4971207;28;20105;-86
2021/07/10 09:28:14;;;;;;;1.90;1.80;;;19.80;99.90;;;;;;4953794;28;20138;-86
2021/07/10 09:30:42;;;;;;;2.40;1.67;;;19.70;99.90;;;;;;4971187;28;20046;-86
2021/07/10 09:33:21;;;;;;;1.77;1.67;;;19.70;99.90;;;;;;4969889;28;20043;-86
2021/07/10 09:35:50;;;;;;;2.30;1.40;;;19.60;99.90;;;;;;4954805;28;20511;-86
2021/07/10 09:38:34;;;;;;;2.60;2.10;;;19.50;99.90;;;;;;4977616;28;20047;-87
2021/07/10 09:41:09;;;;;;;1.80;1.70;;;19.60;99.90;;;;;;4974997;28;20081;-86
2021/07/10 09:43:38;;;;;;;3.67;2.10;;;19.60;99.90;;;;;;4947943;28;20057;-86
2021/07/10 09:46:06;;;;;;;1.73;1.63;;;19.70;99.90;;;;;;4971764;28;20051;-87
2021/07/10 09:48:37;;;;;;;2.13;1.63;;;19.80;99.90;;;;;;4970204;28;20039;-86
2021/07/10 09:51:21;;;;;;;2.47;1.50;;;19.80;99.90;;;;;;4975220;28;20039;-86
2021/07/10 09:54:00;;;;;;;3.85;1.88;;;19.80;99.90;;;;;;4956555;28;20050;-87
2021/07/10 09:56:27;;;;;;;2.45;2.05;;;19.80;99.90;;;;;;4970040;28;20097;-89
2021/07/10 09:58:53;;;;;;;1.92;1.70;;;19.90;99.90;;;;;;4957543;28;20049;-86
2021/07/10 10:01:34;;;;;;;1.63;1.52;;;19.90;99.90;;;;;;4971401;28;20049;-86
2021/07/10 10:04:01;;;;;;;2.15;1.95;;;19.90;99.90;;;;;;4966402;28;20045;-87
2021/07/10 10:06:34;;;;;;;1.95;1.75;;;20.00;99.90;;;;;;4964583;28;20578;-87
2021/07/10 10:09:03;;;;;;;3.45;2.03;;;19.90;99.90;;;;;;4990495;28;20050;-87
2021/07/10 10:11:49;;;;;;;1.98;1.88;;;19.70;99.90;;;;;;4971686;28;20115;-87
2021/07/10 10:14:16;;;;;;;2.47;1.75;;;19.80;99.90;;;;;;4989478;28;20042;-87
2021/07/10 10:16:46;;;;;;;2.88;1.90;;;19.80;99.90;;;;;;4956519;28;20406;-87
2021/07/10 10:19:20;;;;;;;2.45;1.83;;;19.80;99.90;;;;;;4973093;28;20054;-87
2021/07/10 10:21:49;;;;;;;2.08;1.83;;;19.90;99.90;;;;;;4989280;28;20070;-87
2021/07/10 10:24:15;;;;;;;1.80;1.70;;;20.10;99.90;;;;;;4971165;28;20498;-86
2021/07/10 10:26:42;;;;;;;1.70;1.60;;;20.00;99.90;;;;;;4970462;28;20050;-87
2021/07/10 10:29:10;;;;;;;1.63;1.52;;;20.10;99.90;;;;;;4955344;28;20042;-86
2021/07/10 10:31:38;;;;;;;3.55;1.60;;;19.90;99.90;;;;;;4991599;28;20681;-83
2021/07/10 10:34:06;;;;;;;4.32;1.38;;;19.80;99.90;;;;;;4988723;28;20050;-85
2021/07/10 10:36:34;;;;;;;3.33;1.88;;;19.80;99.90;;;;;;4995955;28;20068;-85
2021/07/10 10:39:01;;;;;;;1.77;1.67;;;20.00;99.90;;;;;;4997159;28;20136;-85
2021/07/10 10:41:27;;;;;;;1.83;1.73;;;20.00;99.90;;;;;;4984443;28;20519;-88
2021/07/10 10:43:55;;;;;;;2.00;1.90;;;20.00;99.90;;;;;;4987798;28;20038;-89
2021/07/10 10:46:23;;;;;;;2.20;1.67;;;20.20;99.90;;;;;;4967820;28;20478;-90
2021/07/10 10:48:51;;;;;;;1.85;1.48;;;20.40;99.90;;;;;;4956002;28;20041;-90
2021/07/10 10:51:32;;;;;;;1.60;1.50;;;20.60;99.90;;;;;;4995523;28;20049;-91
2021/07/10 10:54:16;;;;;;;3.10;1.60;;;20.70;99.90;;;;;;4974399;28;20121;-94
2021/07/10 10:56:43;;;;;;;1.67;1.52;;;20.80;99.90;;;;;;4995153;28;20054;-92
2021/07/10 10:59:27;;;;;;;2.35;1.40;;;20.90;99.90;;;;;;4975233;28;20047;-92
2021/07/10 11:01:54;;;;;;;2.90;1.58;;;21.00;99.90;;;;;;4978393;28;20641;-91
2021/07/10 11:04:45;;;;;;;1.73;1.63;;;20.80;99.90;;;;;;4964622;28;20078;-92
2021/07/10 11:07:30;;;;;;;2.53;1.58;;;20.70;99.90;;;;;;4983272;28;20405;-94
2021/07/10 11:10:02;;;;;;;2.20;1.63;;;20.60;99.90;;;;;;4985034;28;20479;-92
2021/07/10 11:12:48;;;;;;;1.45;1.35;;;20.50;99.90;;;;;;4965309;28;20406;-93
2021/07/10 11:15:32;;;;;;;1.90;1.60;;;20.60;99.90;;;;;;4988085;28;20042;-93
2021/07/10 11:18:01;;;;;;;1.70;1.60;;;20.50;99.90;;;;;;4973197;28;20046;-92
2021/07/10 11:20:46;;;;;;;1.50;1.40;;;20.60;99.90;;;;;;4972263;28;20402;-92
2021/07/10 11:23:27;;;;;;;1.60;1.50;;;20.50;99.90;;;;;;4987489;28;20054;-92
2021/07/10 11:25:55;;;;;;;2.10;1.60;;;20.60;99.90;;;;;;4987224;28;20038;-92
2021/07/10 11:28:30;;;;;;;1.85;1.73;;;20.60;99.90;;;;;;4973146;28;20039;-91
2021/07/10 11:31:05;;;;;;;1.58;1.48;;;20.60;99.90;;;;;;4971669;28;20110;-91
2021/07/10 11:33:56;;;;;;;2.80;1.60;;;20.70;99.90;;;;;;4995637;28;20049;-93
2021/07/10 11:36:35;;;;;;;1.63;1.52;;;20.70;99.90;;;;;;4978242;28;20042;-92
2021/07/10 11:39:04;;;;;;;1.50;1.40;;;20.70;99.90;;;;;;4979448;28;20132;-94
2021/07/10 11:41:34;;;;;;;1.70;1.60;;;20.60;99.90;;;;;;4991729;28;20085;-93
2021/07/10 11:44:20;;;;;;;2.13;1.58;;;20.50;99.90;;;;;;5002024;28;20045;-91
2021/07/10 11:46:55;;;;;;;1.70;1.60;;;20.60;99.90;;;;;;4979241;28;20462;-93
2021/07/10 11:49:36;;;;;;;1.60;1.48;;;20.60;99.90;;;;;;4988994;28;20073;-94
2021/07/10 11:52:14;;;;;;;1.60;1.50;;;20.70;99.90;;;;;;5008067;28;20068;-93
2021/07/10 11:54:48;;;;;;;2.35;2.08;;;20.70;99.90;;;;;;4973156;28;20121;-91
2021/07/10 11:57:16;;;;;;;1.58;1.48;;;20.60;99.90;;;;;;4962580;28;20046;-93
2021/07/10 11:59:42;;;;;;;4.70;1.95;;;20.60;99.90;;;;;;4993802;28;20050;-93
2021/07/10 12:02:29;;;;;;;1.70;1.60;;;20.60;99.90;;;;;;5005613;28;20072;-92
2021/07/10 12:05:01;;;;;;;2.13;2.03;;;20.50;99.90;;;;;;4988253;28;20092;-91
2021/07/10 12:07:31;;;;;;;1.63;1.52;;;20.50;99.90;;;;;;4988753;28;20058;-93
2021/07/10 12:09:57;;;;;;;3.47;1.65;;;20.60;99.90;;;;;;4957399;28;20544;-93
2021/07/10 12:12:22;;;;;;;3.63;2.20;;;20.60;99.90;;;;;;4955975;28;20047;-93
2021/07/10 12:14:53;;;;;;;1.85;1.65;;;20.60;99.90;;;;;;4940047;28;20402;-92
2021/07/10 12:17:20;;;;;;;1.83;1.73;;;20.60;99.90;;;;;;4956712;28;20391;-91
2021/07/10 12:19:50;;;;;;;2.67;2.10;;;20.60;99.90;;;;;;4956253;28;20043;-93
2021/07/10 12:22:17;;;;;;;2.22;1.88;;;20.70;99.90;;;;;;4974184;28;20042;-93
2021/07/10 12:24:44;;;;;;;1.83;1.73;;;20.70;99.90;;;;;;4956054;28;20489;-92
2021/07/10 12:27:16;;;;;;;2.20;2.00;;;20.90;99.90;;;;;;4940970;28;20065;-93
2021/07/10 12:29:55;;;;;;;2.90;1.92;;;20.90;99.90;;;;;;4956111;28;20455;-92
2021/07/10 12:32:21;;;;;;;2.03;1.70;;;21.00;99.90;;;;;;4972876;28;20061;-93
2021/07/10 12:34:48;;;;;;;2.85;1.80;;;21.10;99.90;;;;;;4959949;28;20034;-91
2021/07/10 12:37:25;;;;;;;2.20;2.03;;;21.20;99.90;;;;;;4959398;28;20053;-92
2021/07/10 12:40:15;;;;;;;1.90;1.80;;;21.20;99.90;;;;;;4958444;28;20039;-93
2021/07/10 12:42:40;;;;;;;2.20;2.10;;;21.50;99.90;;;;;;4942997;28;20042;-93
2021/07/10 12:45:12;;;;;;;2.30;1.92;;;21.50;99.90;;;;;;4955909;28;20498;-92